Inverness, Illinois
Current Conditions -  °F | °C
As of 11:52 AM on Thursday 27 Nov 2014 (Local Time) from KPWK Reporting Station
Overcast Overcast  
Wind Chill: 10°   Ceiling: 2000
Heat Index: 24°   Visibility: 10mi
Dew Point: 15°   Wind: 18mph
Humidity: 69%   Direction: 310°NW
Pressure: 30.36"   Gusts: 25mph
Location:  42.1096°N, 88.0556°W
Report Text: KPWK 271752Z 31016G22KT 10SM OVC020 M04/M09 A3036 RMK AO2 SLP289 T10441094 11033 21044 51010
Loading
Personal Weather Stations






























Interactive Weather Map New forecast layout! Learn more

10-Day Weather Forecast

Advertisements
Track Severe Weather on mobile